Port Glasgow, United Kingdom
Current Conditions -  °F | °C
As of 10:20 AM on Thursday 29 Jan 2015 (Local Time) from EGPF Reporting Station
Scattered Clouds Scattered Clouds  
Wind Chill: 26°   Ceiling: Unl
Heat Index: 34°   Visibility: 6mi
Dew Point: 30°   Wind: 10mph
Humidity: 87%   Direction: 250°WSW
Pressure: 28.79"   Gusts: NA
Location:  55.93°N, 4.69°W
Report Text: EGPF 291020Z 25009KT 9999 SCT030 01/M01 Q0975
Loading
Personal Weather Stations






























Interactive Weather Map New forecast layout! Learn more

10-Day Weather Forecast

Advertisements
Track Severe Weather on mobile